Aktuální počasí v Česku a ve světě - METAR

Seznam meteostanic umístěných nejčasteji na letišti v ČR a ve světě

Vyhledat místa podle abecedy:
A B C D E F G H I J K L M N O P Q R S T U V W X Y Z

Filtrovat:

ID stanice:
a/nebo
Název místa (fulltext):
 
Místo (ID)Naposledy načteno 
Holešov (Holesov) 05.12.2020 07:00 UTC Zobrazit data
Místo: Holešov
Teplota: 8 °C (pocitová: 1.6 °C)
Vítr: 6 m/s z(e) 150°
Počasí: skoro zataženo
Dohlednost: 25 km
Zákl. oblačnosti: 7/8 1380 m
Vlhkost: 76%
Hamburg (EDDH) 05.12.2020 06:50 UTC Zobrazit METAR
EDDH 050650Z 08005KT 050V110 9999 FEW046 02/M00 Q0994 NOSIG
Hannover (EDDV) 05.12.2020 06:50 UTC Zobrazit METAR
EDDV 050650Z 12004KT 090V170 6000 -RA FEW020 BKN046 01/M00 Q0994 TEMPO 4500 -RASN BKN014
Hanoi (VVNB) 05.12.2020 07:00 UTC Zobrazit METAR
VVNB 050700Z 36004KT 280V070 CAVOK 19/06 Q1021 NOSIG
Harare (FVHA) 13.09.2018 03:00 UTC Zobrazit METAR
FVHA 130300Z 07008KT CAVOK 14/07 Q1022 NOSIG
Havana (MUHA) 05.12.2020 06:55 UTC Zobrazit METAR
MUHA 050655Z VRB02KT 9000 SCT030 22/20 Q1017
Helsinki (EFHK) 05.12.2020 06:50 UTC Zobrazit METAR
EFHK 050650Z 16012KT 9999 -DZ OVC008 03/02 Q1014 NOSIG
Hong Kong (VHHH) 05.12.2020 07:00 UTC Zobrazit METAR
VHHH 050700Z 33008KT 290V350 8000 NSC 19/08 Q1020 NOSIG
Honiara (AGGH) 05.12.2020 07:00 UTC Zobrazit METAR
AGGH 050700Z 27003KT 9999 FEW016 SCT029 BKN100 29/24 Q1009
Horta (LPHR) 05.12.2020 07:00 UTC Zobrazit METAR
LPHR 050700Z 01006KT 9000 VCSH SCT011 SCT025 13/10 Q1032
Reklama


Další české internetové stránky (nejen) o počasí najdete v katalogu TOPlist - weby o počasí nebo vyhledejte na internetu, co jste tu na 🌞 Slunečnu ⛅ zatím nenašli:
⭐ Přidat Slunečno.cz do oblíbených | 🏠 Nastavit Slunečno.cz jako HOMEPAGE

⬆️ Posunout stránku nahoru ⬆️
Reklama